Airfield :
LOGIN :

Register | Disclaimer

   EN    FR    IT 

 










Legend :    VFR   Marginal VFR   IFR   Intensive IFR   Very Intensive IFR
Visi :
Ceiling :
>= 8 km
>= 3000ft
5 to 8 km
1000 to 3000 ft
1500m to 5 km
500 to 1000 ft
800 to 1500m
200 to 500 ft
< 800m
< 200 ft
Symbols :   Thunderstorms  Fog  Heavy snow  Heavy precipitations  Wind > 20 kt
SIGMETs :     Misc.  Thunderstorms  Icing  Turbulence  Mountain Waves  Volcanic Ashes







- Airport Elevation : 2945 ft
- IATA code : RGS


LEBG - Burgos

CURRENT METAR :
  • 251330Z 22024G38KT 9999 +SHSNGR BKN022TCU 07/02 Q1009

EXPIRED METARs :
  • 251300Z 22015KT 190V250 9999 SCT026 SCT056 09/06 Q1008
  • 251230Z 24020KT 9000 -RA BKN024 05/03 Q1009
  • 251200Z 22020KT 9999 BKN034 09/02 Q1008
  • 251130Z 22020G31KT 9999 SCT030 08/03 Q1008
  • 251100Z 22023G33KT 190V250 9999 BKN034 08/02 Q1008

TAF TAF LEBG
Valid from the 25 at 12:00 until the 25 at 21:00 UTC


251100Z 2512/2521 23014KT 9999 BKN030
TEMPO 2512/2521 23024G34KT
PROB40
TEMPO 2512/2519 4000 SHRA SCT025TCU
No reported NOTAMs for that airfield.
3 SIGMETs reported for the Madrid FIR (LECM) :
 
Embedded thunderstorms
LECM SIGMET 4 VALID 251210/251400 LEVA
LECM MADRID FIR/UIR EMBD TS OBS AT 1210Z WI N4057 W00336 - N4043 W00258 - N4210 W00018 - N4236 W00009 - N4057 W00336 TOP FL250 MOV NE NC=
Embedded thunderstorms
LECM SIGMET 3 VALID 251142/251400 LEVA
LECM MADRID FIR/UIR EMBD TS OBS AT 1142Z WI N4214 W01024 - N4307 W01035 - N4447 W00736 - N4420 W00705 - N4304 W00820 - N42 W00739 - N4214 W01024 TOP FL300 MOV E NC=
Severe turbulence
LECM SIGMET 2 VALID 251100/251500 LEVA
LECM MADRID FIR SEV TURB FCST WI N4316 W00717 - N4206 W00702 - N4153 W00143 - N4255 W00143 - N4316 W00717 SFC/FL090 STNR NC=



MET'MAP, your aeronautical weather chart ! - Copyright ORBIFLY December 2007 - Disclaimer

ORBIFLY MET'MAP TEAM :

Programming & Development : Alexandra Zaïnal
Concept & Development : Baudouin d'Aumeries
Co-Development & Prog : Marc-Olivier Méhu
Technical & hardware support : Manuel Goepfert

Contact : metmap@orbifly.com




SOURCES & CREDITS :

   NOAA